Terminal Aerodrome Forecast
Issued by NWS Albany, NY

Home | Current Version | Previous Version | Text Only | Print | Product List | Glossary On
Versions: 1 2 3 4 5 6 7 8 9 10 11 12 13 14 15 16 17 18 19 20 21 22
000
FTUS41 KALY 222300 RRA
TAFGFL
TAF
KGFL 222351Z 2300/2324 19007KT P6SM FEW060
     FM230500 18003KT 3SM BR SKC
     FM230800 18003KT 1SM BR SCT250
     FM231300 19006KT 6SM HZ SCT050 SCT250
     FM231600 21008KT P6SM SCT050 SCT250
     FM231800 22008KT P6SM BKN050 BKN100 PROB30 2318/2322 3SM TSRA
      BKN015CB BKN030
     FM232200 25007KT P6SM BKN050 BKN100=

USA.gov is the U.S. government's official web portal to all federal, state and local government web resources and services.